createdAt,value
2022-08-26T00:03:46.280Z,19.08
2022-08-26T00:08:48.844Z,19.00
2022-08-26T00:13:51.084Z,19.19
2022-08-26T00:18:56.559Z,18.87
2022-08-26T00:23:58.751Z,18.54
2022-08-26T00:29:01.099Z,18.92
2022-08-26T00:34:03.347Z,18.95
2022-08-26T00:39:07.675Z,18.56
2022-08-26T00:44:11.336Z,18.58
2022-08-26T00:49:17.492Z,18.65
2022-08-26T00:54:22.169Z,18.69
2022-08-26T00:59:26.282Z,18.70
2022-08-26T01:04:28.950Z,18.31
2022-08-26T01:09:31.960Z,18.58
2022-08-26T01:14:36.762Z,18.17
2022-08-26T01:19:44.396Z,18.49
2022-08-26T01:24:47.578Z,18.40
2022-08-26T01:29:51.294Z,18.12
2022-08-26T01:34:53.608Z,17.57
2022-08-26T01:39:57.333Z,18.14
2022-08-26T01:45:09.047Z,18.43
2022-08-26T01:50:17.920Z,18.33
2022-08-26T01:55:32.999Z,18.12
2022-08-26T02:00:36.670Z,18.05
2022-08-26T02:05:39.022Z,17.88
2022-08-26T02:10:42.404Z,18.11
2022-08-26T02:15:45.914Z,18.24
2022-08-26T02:20:51.716Z,18.23
2022-08-26T02:26:04.744Z,18.25
2022-08-26T02:31:07.992Z,18.05
2022-08-26T02:36:10.551Z,18.01
2022-08-26T02:41:14.409Z,17.81
2022-08-26T02:46:21.468Z,17.93
2022-08-26T02:51:32.344Z,17.78
2022-08-26T02:56:36.463Z,17.85
2022-08-26T03:01:40.719Z,17.93
2022-08-26T03:06:43.049Z,18.03
2022-08-26T03:11:49.206Z,17.91
2022-08-26T03:16:54.139Z,17.91
2022-08-26T03:21:57.909Z,17.87
2022-08-26T03:27:02.098Z,17.64
2022-08-26T03:32:10.060Z,18.35
2022-08-26T03:37:12.908Z,18.22
2022-08-26T03:42:15.186Z,18.39
2022-08-26T03:47:18.292Z,18.15
2022-08-26T03:52:20.470Z,18.44
2022-08-26T03:57:23.521Z,18.21
2022-08-26T04:02:26.121Z,18.71
2022-08-26T04:07:28.419Z,18.73
2022-08-26T04:12:34.615Z,18.87
2022-08-26T04:17:36.986Z,18.90
2022-08-26T04:22:39.274Z,19.05
2022-08-26T04:27:42.852Z,19.11
2022-08-26T04:32:45.803Z,18.94
2022-08-26T04:37:49.583Z,18.94
2022-08-26T04:42:51.846Z,19.08
2022-08-26T04:47:57.266Z,18.70
2022-08-26T04:53:00.129Z,19.45
2022-08-26T04:58:02.411Z,19.39
2022-08-26T05:03:04.642Z,19.28
2022-08-26T05:08:08.631Z,19.50
2022-08-26T05:13:15.741Z,19.74
2022-08-26T05:18:21.419Z,19.97
2022-08-26T05:23:25.491Z,19.38
2022-08-26T05:28:29.942Z,20.04
2022-08-26T05:33:32.197Z,20.17
2022-08-26T05:38:35.938Z,20.37
2022-08-26T05:43:38.627Z,20.65
2022-08-26T05:48:44.216Z,20.79
2022-08-26T05:53:54.828Z,20.83
2022-08-26T05:58:58.413Z,21.30
2022-08-26T06:04:03.312Z,21.76
2022-08-26T06:09:06.612Z,21.76
2022-08-26T06:14:12.082Z,22.13
2022-08-26T06:19:15.834Z,22.34
2022-08-26T06:24:36.656Z,22.09
2022-08-26T06:29:39.243Z,22.70
2022-08-26T06:34:44.855Z,21.55
2022-08-26T06:39:47.254Z,22.89
2022-08-26T06:44:53.497Z,23.23
2022-08-26T06:49:55.816Z,23.46
2022-08-26T06:54:58.789Z,23.68
2022-08-26T07:00:01.231Z,23.83
2022-08-26T07:05:08.248Z,24.11
2022-08-26T07:10:11.401Z,23.46
2022-08-26T07:15:13.703Z,24.33
2022-08-26T07:20:18.275Z,24.57
2022-08-26T07:25:21.748Z,24.58
2022-08-26T07:30:27.393Z,24.92
2022-08-26T07:35:29.723Z,25.36
2022-08-26T07:40:34.168Z,25.59
2022-08-26T07:45:36.485Z,25.40
2022-08-26T07:50:49.386Z,25.80
2022-08-26T07:55:52.814Z,26.12
2022-08-26T08:00:56.060Z,26.26
2022-08-26T08:05:58.474Z,26.01
2022-08-26T08:11:00.785Z,26.24
2022-08-26T08:16:03.402Z,26.18
2022-08-26T08:21:21.276Z,26.75
2022-08-26T08:26:25.729Z,26.72
2022-08-26T08:31:56.260Z,27.16
2022-08-26T08:36:54.288Z,27.21
2022-08-26T08:41:56.507Z,27.44
2022-08-26T08:47:04.557Z,27.19
2022-08-26T08:52:20.495Z,26.30
2022-08-26T08:57:30.707Z,27.82
2022-08-26T09:02:39.448Z,26.01
2022-08-26T09:07:49.668Z,27.31
2022-08-26T09:12:53.345Z,27.58
2022-08-26T09:18:27.117Z,28.19
2022-08-26T09:23:30.952Z,28.33
2022-08-26T09:28:33.177Z,28.47
2022-08-26T09:33:35.997Z,28.53
2022-08-26T09:38:38.416Z,28.39
2022-08-26T09:43:41.850Z,28.91
2022-08-26T09:48:44.283Z,28.88
2022-08-26T09:54:01.169Z,29.12
2022-08-26T09:59:06.479Z,29.28
2022-08-26T10:04:20.221Z,29.44
2022-08-26T10:09:24.213Z,29.33
2022-08-26T10:19:56.744Z,29.49
2022-08-26T10:25:04.306Z,29.54
2022-08-26T10:30:11.825Z,29.61
2022-08-26T10:35:16.312Z,29.57
2022-08-26T10:40:53.135Z,29.73
2022-08-26T10:46:01.286Z,29.45
2022-08-26T10:51:04.726Z,29.69
2022-08-26T10:56:18.551Z,29.80
2022-08-26T11:01:47.131Z,29.87
2022-08-26T11:07:31.713Z,29.93
2022-08-26T11:12:37.548Z,29.77
2022-08-26T11:18:10.095Z,29.81
2022-08-26T11:23:25.221Z,29.90
2022-08-26T11:28:46.086Z,29.43
2022-08-26T11:34:00.273Z,29.35
2022-08-26T11:39:29.003Z,29.44
2022-08-26T11:44:41.906Z,29.21
2022-08-26T11:50:16.611Z,29.43
2022-08-26T11:55:19.167Z,29.31
2022-08-26T12:00:25.066Z,29.23
2022-08-26T12:05:31.416Z,29.64
2022-08-26T12:10:34.745Z,29.46
2022-08-26T12:15:36.923Z,29.36
2022-08-26T12:20:46.455Z,29.39
2022-08-26T12:25:50.904Z,29.39
2022-08-26T12:31:04.049Z,29.41
2022-08-26T12:36:07.214Z,28.99
2022-08-26T12:41:09.535Z,29.52
2022-08-26T12:46:16.124Z,29.62
2022-08-26T12:51:30.526Z,29.49
2022-08-26T12:56:39.741Z,29.73
2022-08-26T13:01:44.609Z,29.84
2022-08-26T13:06:48.125Z,29.68
2022-08-26T13:11:53.142Z,29.99
2022-08-26T13:16:55.457Z,29.65
2022-08-26T13:22:01.833Z,30.16
2022-08-26T13:27:05.367Z,30.05
2022-08-26T13:32:08.242Z,30.03
2022-08-26T13:37:11.449Z,29.82
2022-08-26T13:42:16.859Z,29.95
2022-08-26T13:47:20.780Z,30.07
2022-08-26T13:52:30.796Z,30.00
2022-08-26T13:57:33.467Z,29.73
2022-08-26T14:02:35.760Z,30.17
2022-08-26T14:07:37.997Z,30.08
2022-08-26T14:12:40.341Z,29.88
2022-08-26T14:17:42.880Z,29.95
2022-08-26T14:23:03.484Z,29.95
2022-08-26T14:28:08.032Z,29.76
2022-08-26T14:33:14.731Z,29.80
2022-08-26T14:38:17.600Z,29.81
2022-08-26T14:43:19.835Z,29.54
2022-08-26T14:48:22.082Z,29.59
2022-08-26T14:53:42.924Z,29.48
2022-08-26T14:58:45.235Z,29.28
2022-08-26T15:03:47.559Z,29.03
2022-08-26T15:08:49.930Z,29.04
2022-08-26T15:13:53.265Z,29.08
2022-08-26T15:18:56.252Z,29.05
2022-08-26T15:23:59.631Z,28.69
2022-08-26T15:29:05.057Z,28.34
2022-08-26T15:34:16.058Z,28.76
2022-08-26T15:39:19.329Z,28.37
2022-08-26T15:44:21.845Z,28.23
2022-08-26T15:49:24.184Z,28.23
2022-08-26T15:54:29.034Z,28.38
2022-08-26T15:59:31.835Z,27.86
2022-08-26T16:04:34.147Z,28.18
2022-08-26T16:09:36.573Z,27.95
2022-08-26T16:14:39.168Z,27.79
2022-08-26T16:19:44.428Z,27.30
2022-08-26T16:24:46.748Z,27.42
2022-08-26T16:29:49.001Z,27.09
2022-08-26T16:34:56.626Z,27.07
2022-08-26T16:39:59.459Z,26.93
2022-08-26T16:45:01.885Z,26.23
2022-08-26T16:50:06.931Z,26.61
2022-08-26T16:55:12.559Z,26.10
2022-08-26T17:00:26.419Z,26.16
2022-08-26T17:05:31.547Z,25.95
2022-08-26T17:10:34.033Z,25.56
2022-08-26T17:15:36.381Z,25.45
2022-08-26T17:20:38.744Z,25.26
2022-08-26T17:25:41.370Z,25.09
2022-08-26T17:30:44.611Z,24.90
2022-08-26T17:35:46.902Z,24.76
2022-08-26T17:40:49.961Z,25.04
2022-08-26T17:45:56.736Z,24.60
2022-08-26T17:51:00.604Z,24.73
2022-08-26T17:56:06.162Z,24.68
2022-08-26T18:01:11.033Z,24.59
2022-08-26T18:06:14.951Z,24.45
2022-08-26T18:11:20.496Z,24.20
2022-08-26T18:16:23.618Z,23.90
2022-08-26T18:21:27.854Z,23.89
2022-08-26T18:26:34.606Z,23.65
2022-08-26T18:31:39.641Z,23.82
2022-08-26T18:36:42.662Z,23.57
2022-08-26T18:41:48.014Z,23.33
2022-08-26T18:46:51.411Z,23.71
2022-08-26T18:51:53.728Z,23.36
2022-08-26T18:56:56.579Z,23.31
2022-08-26T19:01:59.274Z,23.38
2022-08-26T19:07:01.729Z,23.32
2022-08-26T19:12:05.752Z,23.03
2022-08-26T19:17:08.350Z,22.83
2022-08-26T19:22:13.477Z,23.11
2022-08-26T19:27:15.894Z,22.90
2022-08-26T19:32:19.182Z,22.85
2022-08-26T19:37:21.631Z,22.77
2022-08-26T19:42:23.885Z,22.65
2022-08-26T19:47:27.445Z,22.45
2022-08-26T19:52:30.430Z,22.33
2022-08-26T19:57:33.511Z,22.56
2022-08-26T20:02:36.482Z,22.25
2022-08-26T20:07:39.630Z,22.07
2022-08-26T20:12:42.941Z,22.17
2022-08-26T20:17:45.338Z,22.16
2022-08-26T20:22:48.556Z,21.96
2022-08-26T20:27:51.232Z,22.05
2022-08-26T20:32:53.636Z,21.36
2022-08-26T20:37:55.970Z,21.48
2022-08-26T20:43:01.165Z,21.68
2022-08-26T20:48:03.979Z,21.39
2022-08-26T20:53:06.995Z,21.48
2022-08-26T20:58:09.508Z,21.22
2022-08-26T21:03:11.880Z,21.22
2022-08-26T21:08:14.191Z,21.10
2022-08-26T21:13:16.551Z,21.09
2022-08-26T21:18:18.851Z,21.10
2022-08-26T21:23:21.211Z,20.82
2022-08-26T21:28:23.545Z,20.36
2022-08-26T21:33:25.923Z,20.79
2022-08-26T21:38:33.193Z,20.97
2022-08-26T21:43:36.887Z,20.71
2022-08-26T21:48:40.211Z,20.66
2022-08-26T21:53:42.915Z,20.52
2022-08-26T21:58:45.346Z,20.64
2022-08-26T22:03:49.124Z,20.46
2022-08-26T22:08:52.293Z,20.29
2022-08-26T22:13:57.214Z,20.46
2022-08-26T22:19:01.341Z,20.16
2022-08-26T22:24:24.030Z,20.31
2022-08-26T22:29:27.298Z,20.20
2022-08-26T22:34:29.603Z,20.23
2022-08-26T22:39:31.930Z,20.01
2022-08-26T22:44:36.788Z,20.12
2022-08-26T22:49:39.031Z,19.65
2022-08-26T22:54:41.332Z,19.81
2022-08-26T22:59:43.701Z,19.73
2022-08-26T23:04:45.979Z,19.86
2022-08-26T23:09:49.798Z,19.49
2022-08-26T23:14:52.095Z,19.73
2022-08-26T23:19:55.461Z,19.64
2022-08-26T23:24:58.304Z,19.51
2022-08-26T23:30:02.667Z,19.45
2022-08-26T23:35:06.598Z,19.12
2022-08-26T23:40:13.341Z,19.30
2022-08-26T23:45:18.612Z,19.28
2022-08-26T23:50:23.649Z,19.13
2022-08-26T23:55:44.498Z,18.95
